createdAt,value
2019-01-30T00:03:54.328Z,5.1
2019-01-30T00:08:59.454Z,5.4
2019-01-30T00:14:05.489Z,5.3
2019-01-30T00:19:11.849Z,5.3
2019-01-30T00:24:17.577Z,5
2019-01-30T00:29:22.704Z,5.7
2019-01-30T00:34:28.007Z,5.2
2019-01-30T00:39:33.850Z,5.4
2019-01-30T00:44:40.008Z,5.3
2019-01-30T00:49:44.991Z,4.1
2019-01-30T00:54:49.996Z,4.7
2019-01-30T00:59:54.927Z,3.8
2019-01-30T01:05:00.976Z,4.1
2019-01-30T01:10:06.139Z,5.4
2019-01-30T01:15:10.679Z,4.1
2019-01-30T01:20:16.190Z,3
2019-01-30T01:25:21.884Z,3.7
2019-01-30T01:30:27.502Z,4.3
2019-01-30T01:35:33.506Z,3.1
2019-01-30T01:40:39.204Z,3.4
2019-01-30T01:45:45.086Z,4.9
2019-01-30T01:50:50.102Z,3.3
2019-01-30T01:55:55.543Z,4.8
2019-01-30T02:01:00.713Z,3
2019-01-30T02:06:06.661Z,3.7
2019-01-30T02:11:12.649Z,4.1
2019-01-30T02:16:18.521Z,3.5
2019-01-30T02:21:24.272Z,3.8
2019-01-30T02:26:30.337Z,3.8
2019-01-30T02:31:35.293Z,3.6
2019-01-30T02:36:40.340Z,2.9
2019-01-30T02:41:46.054Z,3.3
2019-01-30T02:46:51.717Z,3.4
2019-01-30T02:51:58.004Z,3.4
2019-01-30T02:57:03.198Z,3.5
2019-01-30T03:02:08.157Z,3.8
2019-01-30T03:07:14.184Z,3.8
2019-01-30T03:12:19.683Z,3.4
2019-01-30T03:17:25.206Z,3.4
2019-01-30T03:22:29.616Z,3.4
2019-01-30T03:27:34.120Z,3.7
2019-01-30T03:32:39.550Z,3.9
2019-01-30T03:37:44.872Z,3.5
2019-01-30T03:42:49.876Z,4.2
2019-01-30T03:47:55.752Z,5.5
2019-01-30T03:53:00.751Z,3.9
2019-01-30T03:58:06.098Z,3.5
2019-01-30T04:03:12.065Z,4.2
2019-01-30T04:08:17.271Z,3.6
2019-01-30T04:13:22.437Z,3.3
2019-01-30T04:18:28.832Z,4.1
2019-01-30T04:23:33.880Z,3.5
2019-01-30T04:28:39.819Z,4.4
2019-01-30T04:33:44.750Z,3.9
2019-01-30T04:38:49.207Z,4.6
2019-01-30T04:43:55.220Z,5
2019-01-30T04:49:00.281Z,4.7
2019-01-30T04:54:05.880Z,3.2
2019-01-30T04:59:10.620Z,4.9
2019-01-30T05:04:15.571Z,3.7
2019-01-30T05:09:20.688Z,4.9
2019-01-30T05:14:25.924Z,4.3
2019-01-30T05:19:30.953Z,4.1
2019-01-30T05:24:36.764Z,3.8
2019-01-30T05:29:41.814Z,4.5
2019-01-30T05:34:46.844Z,8.1
2019-01-30T05:39:52.873Z,10.5
2019-01-30T05:44:58.228Z,18.1
2019-01-30T05:50:04.218Z,15.3
2019-01-30T05:55:09.960Z,12.9
2019-01-30T06:00:14.948Z,22.1
2019-01-30T06:05:20.753Z,16.3
2019-01-30T06:10:26.301Z,9.8
2019-01-30T06:15:31.713Z,8.6
2019-01-30T06:20:36.927Z,10.9
2019-01-30T06:25:42.683Z,11.4
2019-01-30T06:30:43.204Z,10.7
2019-01-30T06:35:47.620Z,11.2
2019-01-30T06:40:53.804Z,8.9
2019-01-30T06:45:58.931Z,9.8
2019-01-30T06:51:04.427Z,11.2
2019-01-30T06:56:09.940Z,15.3
2019-01-30T07:01:15.044Z,12.1
2019-01-30T07:06:20.897Z,10.4
2019-01-30T07:11:27.044Z,13.6
2019-01-30T07:16:32.996Z,16.1
2019-01-30T07:21:38.359Z,13.2
2019-01-30T07:26:44.180Z,8.6
2019-01-30T07:31:50.116Z,10.5
2019-01-30T07:36:55.212Z,6.3
2019-01-30T07:42:00.657Z,8.1
2019-01-30T07:47:06.233Z,4.8
2019-01-30T07:52:11.678Z,5.5
2019-01-30T07:57:17.388Z,7.2
2019-01-30T08:02:22.514Z,7.1
2019-01-30T08:07:28.121Z,3.3
2019-01-30T08:12:34.253Z,4.1
2019-01-30T08:17:38.920Z,3.5
2019-01-30T08:22:43.298Z,3.2
2019-01-30T08:27:52.865Z,14.6
2019-01-30T08:33:04.396Z,36.4
2019-01-30T08:38:00.839Z,26.6
2019-01-30T08:43:06.612Z,19.5
2019-01-30T08:48:12.419Z,18.9
2019-01-30T08:53:18.097Z,13.6
2019-01-30T08:58:22.477Z,12.7
2019-01-30T09:03:28.416Z,11.5
2019-01-30T09:08:34.061Z,9.8
2019-01-30T09:13:39.363Z,13.1
2019-01-30T09:18:44.564Z,9.7
2019-01-30T09:23:49.521Z,9
2019-01-30T09:28:58.911Z,8.7
2019-01-30T09:34:03.087Z,16.6
2019-01-30T09:39:08.729Z,13.1
2019-01-30T09:44:14.362Z,9.8
2019-01-30T09:49:18.574Z,11.4
2019-01-30T09:54:24.559Z,9.4
2019-01-30T09:59:30.856Z,13.2
2019-01-30T10:04:37.584Z,9.8
2019-01-30T10:09:42.897Z,11.9
2019-01-30T10:14:48.875Z,15.8
2019-01-30T10:19:53.710Z,10.4
2019-01-30T10:24:59.274Z,9
2019-01-30T10:30:04.746Z,8.7
2019-01-30T10:35:10.520Z,9.8
2019-01-30T10:40:16.003Z,8.1
2019-01-30T10:45:21.055Z,8.1
2019-01-30T10:50:26.502Z,7.8
2019-01-30T10:55:32.204Z,8.2
2019-01-30T11:00:37.353Z,7.2
2019-01-30T11:05:44.373Z,6.6
2019-01-30T11:10:51.090Z,7.1
2019-01-30T11:15:57.237Z,8.7
2019-01-30T11:21:06.029Z,7.2
2019-01-30T11:26:11.545Z,6.9
2019-01-30T11:31:16.962Z,6.7
2019-01-30T11:36:22.790Z,7.4
2019-01-30T11:41:26.973Z,7.5
2019-01-30T11:46:32.648Z,7
2019-01-30T11:51:38.044Z,7.6
2019-01-30T11:56:43.209Z,6.9
2019-01-30T12:01:48.868Z,5.8
2019-01-30T12:06:53.876Z,7.1
2019-01-30T12:11:58.825Z,5.7
2019-01-30T12:17:04.811Z,7.5
2019-01-30T12:22:09.772Z,7.3
2019-01-30T12:27:14.924Z,6.5
2019-01-30T12:32:19.923Z,5.5
2019-01-30T12:37:25.960Z,5.7
2019-01-30T12:42:31.024Z,6.5
2019-01-30T12:47:36.979Z,8.5
2019-01-30T12:52:42.012Z,7
2019-01-30T12:57:47.779Z,5.6
2019-01-30T13:02:53.076Z,6.9
2019-01-30T13:07:58.147Z,6
2019-01-30T13:13:03.182Z,6.4
2019-01-30T13:18:17.872Z,6.8
2019-01-30T13:23:13.582Z,10
2019-01-30T13:28:18.515Z,8.5
2019-01-30T13:33:23.707Z,6.9
2019-01-30T13:38:29.540Z,8.6
2019-01-30T13:43:34.729Z,12.4
2019-01-30T13:48:40.379Z,11.9
2019-01-30T13:53:45.852Z,10.7
2019-01-30T13:58:52.027Z,10.9
2019-01-30T14:03:57.116Z,21.7
2019-01-30T14:09:01.389Z,15.8
2019-01-30T14:14:07.143Z,19.8
2019-01-30T14:19:12.699Z,33.1
2019-01-30T14:24:18.761Z,38.1
2019-01-30T14:29:25.807Z,29.2
2019-01-30T14:34:31.213Z,36.3
2019-01-30T14:39:36.438Z,35.2
2019-01-30T14:44:42.179Z,49.7
2019-01-30T14:49:48.823Z,39
2019-01-30T14:54:54.932Z,44.2
2019-01-30T15:00:00.908Z,43.1
2019-01-30T15:05:07.138Z,41.8
2019-01-30T15:10:13.286Z,33.7
2019-01-30T15:15:18.857Z,22.4
2019-01-30T15:20:29.821Z,17.9
2019-01-30T15:25:24.963Z,18.2
2019-01-30T15:30:30.161Z,16.7
2019-01-30T15:35:35.810Z,14.9
2019-01-30T15:40:40.908Z,15.1
2019-01-30T15:45:45.977Z,50.4
2019-01-30T15:50:51.503Z,54.8
2019-01-30T15:55:57.593Z,41.3
2019-01-30T16:01:02.755Z,33.4
2019-01-30T16:06:08.670Z,26
2019-01-30T16:11:14.586Z,21
2019-01-30T16:16:19.485Z,17.6
2019-01-30T16:21:24.971Z,15
2019-01-30T16:26:26.154Z,11.8
2019-01-30T16:31:32.999Z,15.9
2019-01-30T16:36:41.424Z,15.2
2019-01-30T16:41:39.311Z,13.1
2019-01-30T16:46:44.777Z,12
2019-01-30T16:51:50.608Z,16.3
2019-01-30T16:56:56.463Z,16.5
2019-01-30T17:02:01.579Z,18
2019-01-30T17:07:07.208Z,14.9
2019-01-30T17:12:12.833Z,23.9
2019-01-30T17:17:17.945Z,20.1
2019-01-30T17:22:23.872Z,22.2
2019-01-30T17:27:29.896Z,13.4
2019-01-30T17:32:36.084Z,13.1
2019-01-30T17:37:41.166Z,12
2019-01-30T17:42:47.460Z,15.2
2019-01-30T17:47:53.171Z,19.4
2019-01-30T17:52:58.270Z,21
2019-01-30T17:58:03.860Z,19.8
2019-01-30T18:03:09.922Z,16.7
2019-01-30T18:08:15.626Z,13.5
2019-01-30T18:13:20.758Z,12.7
2019-01-30T18:18:25.834Z,10.8
2019-01-30T18:23:31.983Z,16
2019-01-30T18:28:36.921Z,20.9
2019-01-30T18:33:43.206Z,23.6
2019-01-30T18:38:48.726Z,68.4
2019-01-30T18:43:53.406Z,77.2
2019-01-30T18:48:58.805Z,72.7
2019-01-30T18:54:04.533Z,62.5
2019-01-30T18:59:10.156Z,58.6
2019-01-30T19:04:15.456Z,44.8
2019-01-30T19:09:20.743Z,50.3
2019-01-30T19:14:26.537Z,34.4
2019-01-30T19:19:32.209Z,29.3
2019-01-30T19:24:37.982Z,21.6
2019-01-30T19:29:45.563Z,18.9
2019-01-30T19:34:51.317Z,15
2019-01-30T19:39:56.630Z,12.9
2019-01-30T19:45:02.164Z,11.8
2019-01-30T19:50:05.782Z,9.5
2019-01-30T19:55:11.793Z,8.7
2019-01-30T20:00:17.651Z,8.8
2019-01-30T20:05:23.023Z,10.5
2019-01-30T20:10:29.146Z,10.9
2019-01-30T20:15:34.375Z,8.2
2019-01-30T20:20:40.810Z,8.9
2019-01-30T20:25:46.650Z,9.4
2019-01-30T20:30:52.137Z,6.9
2019-01-30T20:35:58.196Z,8.3
2019-01-30T20:41:03.746Z,6.6
2019-01-30T20:46:09.523Z,6.1
2019-01-30T20:51:13.426Z,10.8
2019-01-30T20:56:19.336Z,12.3
2019-01-30T21:01:23.380Z,11.5
2019-01-30T21:06:23.606Z,9.9
2019-01-30T21:11:28.907Z,11.6
2019-01-30T21:16:35.101Z,14.4
2019-01-30T21:21:40.260Z,11.8
2019-01-30T21:26:46.550Z,9.2
2019-01-30T21:31:54.486Z,7.7
2019-01-30T21:36:59.332Z,7.7
2019-01-30T21:42:04.543Z,10.1
2019-01-30T21:47:10.662Z,9.1
2019-01-30T21:52:16.526Z,14.9
2019-01-30T21:57:22.448Z,11.2
2019-01-30T22:02:28.509Z,10.5
2019-01-30T22:07:29.217Z,13.2
2019-01-30T22:12:34.604Z,10.5
2019-01-30T22:17:40.780Z,17.5
2019-01-30T22:22:46.062Z,12.4
2019-01-30T22:27:49.667Z,16.4
2019-01-30T22:32:54.741Z,13.2
2019-01-30T22:37:59.019Z,16.2
2019-01-30T22:43:07.076Z,15
2019-01-30T22:48:12.632Z,18
2019-01-30T22:53:18.049Z,18.8
2019-01-30T22:58:23.837Z,15.4
2019-01-30T23:03:28.894Z,16.2
2019-01-30T23:08:37.215Z,15.6
2019-01-30T23:13:42.921Z,15.9
2019-01-30T23:18:48.241Z,17.8
2019-01-30T23:23:53.462Z,14.5
2019-01-30T23:28:59.764Z,16.7
2019-01-30T23:34:05.752Z,15.3
2019-01-30T23:39:11.537Z,18.1
2019-01-30T23:44:17.197Z,15.5
2019-01-30T23:49:23.320Z,16.4
2019-01-30T23:54:28.728Z,16.4
2019-01-30T23:59:34.658Z,17
